world map with EBDT marked

EBDT - Airport

This information may not be accurate or current and is not valid for navigation or flight planning. No warranty of fitness for any purpose is made or implied.

flag of Vlaams-Brabant (Flemish Brabant)flag of Belgium

Donate via PayPal

Additional information is available on the NEW Great Circle Mapper

Location
City:  Diest, Vlaams-Brabant (Flemish Brabant), Belgium
Name:Schaffen
ICAO:EBDT

Details
Type:Airport (Aerodrome, Airfield)
Use:Military
Latitude:50°59'57"N (50.999167)
Longitude:5°03'56"E (5.065556)
Elevation:100 ft (30 m)

Time
Timezone:UTC+1 (DST+4)
Local Time:

Weather
METAR:EBDT  041325Z 19011KT 9999 BKN060 BKN070 04/M02 Q1024 BLACKBLU BLU
TAF:EBDT  (expired)

Related Locations
Nearby:
Farthest:CHT: 11928 mi / 19197 km
Waitangi [Tuuta], CIT, NZ

Find:

   beyond  
but within

Other Information
Maps:
Links:
Sources:

  


 


Great Circle Mapper   Great Circle Mapper
Great Circle Mapper FAQ   Great Circle Mapper FAQ
  Karl's Home Page
KLSē   KLSē Home
   GC on Facebook
Airlines of the World   Airlines of the World
Donate via PayPal


Copyright © 2004-2020, Karl L. Swartz. All rights reserved.
All trademarks mentioned herein belong to their respective owners.

Please see credits for attribution and copyright information.

Karl Swartz <karl@kls2.com>
  Powered by FreeBSD
Valid HTML 4.01!
Labeled with ICRA
hCard Microformat
Geo Microformat